createdAt,value
2023-08-20T00:01:13.668Z,52.95
2023-08-20T00:03:42.936Z,52.71
2023-08-20T00:06:10.029Z,52.88
2023-08-20T00:08:37.422Z,52.62
2023-08-20T00:11:06.717Z,52.67
2023-08-20T00:13:33.616Z,52.74
2023-08-20T00:16:00.986Z,52.73
2023-08-20T00:18:28.417Z,53.15
2023-08-20T00:20:56.438Z,52.84
2023-08-20T00:23:23.903Z,53.06
2023-08-20T00:25:51.104Z,52.91
2023-08-20T00:28:17.930Z,52.98
2023-08-20T00:30:44.766Z,53.19
2023-08-20T00:33:11.581Z,53.40
2023-08-20T00:35:38.453Z,52.92
2023-08-20T00:38:05.326Z,53.19
2023-08-20T00:40:32.559Z,53.22
2023-08-20T00:42:59.456Z,53.20
2023-08-20T00:45:27.933Z,53.19
2023-08-20T00:47:55.007Z,53.29
2023-08-20T00:50:22.286Z,52.90
2023-08-20T00:52:49.720Z,53.04
2023-08-20T00:55:16.904Z,53.40
2023-08-20T00:57:44.010Z,53.12
2023-08-20T01:00:12.373Z,52.71
2023-08-20T01:02:40.298Z,52.88
2023-08-20T01:05:10.596Z,53.07
2023-08-20T01:07:46.338Z,53.16
2023-08-20T01:10:23.215Z,53.17
2023-08-20T01:12:52.783Z,53.17
2023-08-20T01:15:19.616Z,53.15
2023-08-20T01:17:47.463Z,53.21
2023-08-20T01:20:15.285Z,53.41
2023-08-20T01:22:46.544Z,53.19
2023-08-20T01:25:26.501Z,53.45
2023-08-20T01:27:56.297Z,53.66
2023-08-20T01:30:23.849Z,53.37
2023-08-20T01:32:53.114Z,53.44
2023-08-20T01:35:20.152Z,53.18
2023-08-20T01:37:47.488Z,53.63
2023-08-20T01:40:14.326Z,54.07
2023-08-20T01:42:41.662Z,53.67
2023-08-20T01:45:08.910Z,54.01
2023-08-20T01:47:36.006Z,53.73
2023-08-20T01:50:06.805Z,53.76
2023-08-20T01:52:34.244Z,54.43
2023-08-20T01:55:01.076Z,54.30
2023-08-20T01:57:27.995Z,54.17
2023-08-20T01:59:54.816Z,53.86
2023-08-20T02:02:21.886Z,54.04
2023-08-20T02:04:49.126Z,54.33
2023-08-20T02:07:15.986Z,54.15
2023-08-20T02:09:42.953Z,53.66
2023-08-20T02:12:10.491Z,53.84
2023-08-20T02:14:37.733Z,54.23
2023-08-20T02:17:05.398Z,53.92
2023-08-20T02:19:32.216Z,53.83
2023-08-20T02:21:59.080Z,53.97
2023-08-20T02:24:25.874Z,53.55
2023-08-20T02:26:52.666Z,53.70
2023-08-20T02:29:19.891Z,53.34
2023-08-20T02:31:46.733Z,53.58
2023-08-20T02:34:13.733Z,53.81
2023-08-20T02:36:40.585Z,54.36
2023-08-20T02:39:09.109Z,54.36
2023-08-20T02:41:37.293Z,54.24
2023-08-20T02:44:04.662Z,54.29
2023-08-20T02:46:31.596Z,54.66
2023-08-20T02:48:58.367Z,54.34
2023-08-20T02:51:25.231Z,54.56
2023-08-20T02:53:52.378Z,54.99
2023-08-20T02:56:19.166Z,55.01
2023-08-20T02:58:46.167Z,54.96
2023-08-20T03:01:23.591Z,54.80
2023-08-20T03:03:50.867Z,54.85
2023-08-20T03:06:17.838Z,54.70
2023-08-20T03:08:44.729Z,55.17
2023-08-20T03:11:11.815Z,54.82
2023-08-20T03:13:38.829Z,55.30
2023-08-20T03:16:05.688Z,54.96
2023-08-20T03:18:32.567Z,55.10
2023-08-20T03:20:59.348Z,55.68
2023-08-20T03:23:26.234Z,55.38
2023-08-20T03:25:53.064Z,55.14
2023-08-20T03:28:20.585Z,55.50
2023-08-20T03:30:47.443Z,55.61
2023-08-20T03:33:14.276Z,56.12
2023-08-20T03:35:41.057Z,55.65
2023-08-20T03:38:07.849Z,55.58
2023-08-20T03:40:34.705Z,55.98
2023-08-20T03:43:01.612Z,55.94
2023-08-20T03:45:31.521Z,55.55
2023-08-20T03:47:58.363Z,55.90
2023-08-20T03:50:25.424Z,55.78
2023-08-20T03:52:52.205Z,55.89
2023-08-20T03:55:18.979Z,55.87
2023-08-20T03:57:45.746Z,56.20
2023-08-20T04:00:13.608Z,56.46
2023-08-20T04:02:40.492Z,56.63
2023-08-20T04:05:07.627Z,56.36
2023-08-20T04:07:34.698Z,56.62
2023-08-20T04:10:02.066Z,56.82
2023-08-20T04:12:28.819Z,56.47
2023-08-20T04:14:55.606Z,56.42
2023-08-20T04:17:22.404Z,56.52
2023-08-20T04:19:49.250Z,56.74
2023-08-20T04:22:16.026Z,56.36
2023-08-20T04:24:43.064Z,56.74
2023-08-20T04:27:09.851Z,56.17
2023-08-20T04:29:36.635Z,56.61
2023-08-20T04:32:03.585Z,56.83
2023-08-20T04:34:30.348Z,56.93
2023-08-20T04:36:57.115Z,56.77
2023-08-20T04:39:23.925Z,57.04
2023-08-20T04:41:50.870Z,58.93
2023-08-20T04:44:17.730Z,59.70
2023-08-20T04:46:44.818Z,59.03
2023-08-20T04:49:11.692Z,58.62
2023-08-20T04:51:38.481Z,59.14
2023-08-20T04:54:05.484Z,58.90
2023-08-20T04:56:32.685Z,59.24
2023-08-20T04:58:59.529Z,59.00
2023-08-20T05:01:26.322Z,59.11
2023-08-20T05:03:53.135Z,59.92
2023-08-20T05:06:19.911Z,59.87
2023-08-20T05:08:46.715Z,59.77
2023-08-20T05:11:13.535Z,59.83
2023-08-20T05:13:40.269Z,59.98
2023-08-20T05:16:07.140Z,59.75
2023-08-20T05:18:33.887Z,59.92
2023-08-20T05:21:00.673Z,60.05
2023-08-20T05:23:27.890Z,59.73
2023-08-20T05:25:55.028Z,59.88
2023-08-20T05:28:21.821Z,60.39
2023-08-20T05:30:58.548Z,59.82
2023-08-20T05:33:25.956Z,59.70
2023-08-20T05:35:52.725Z,60.24
2023-08-20T05:38:19.527Z,59.77
2023-08-20T05:40:46.364Z,59.69
2023-08-20T05:43:13.165Z,59.58
2023-08-20T05:45:39.905Z,59.85
2023-08-20T05:48:07.188Z,60.00
2023-08-20T05:50:33.961Z,60.42
2023-08-20T05:53:01.964Z,59.85
2023-08-20T05:55:28.716Z,59.90
2023-08-20T05:57:55.612Z,59.99
2023-08-20T06:00:22.482Z,59.88
2023-08-20T06:02:49.302Z,59.64
2023-08-20T06:05:16.173Z,59.22
2023-08-20T06:07:43.083Z,59.34
2023-08-20T06:10:10.035Z,59.50
2023-08-20T06:12:37.104Z,58.73
2023-08-20T06:15:06.024Z,59.56
2023-08-20T06:17:32.852Z,59.33
2023-08-20T06:19:59.647Z,59.28
2023-08-20T06:22:26.431Z,59.42
2023-08-20T06:24:53.582Z,59.48
2023-08-20T06:27:20.342Z,59.63
2023-08-20T06:29:47.117Z,59.01
2023-08-20T06:32:14.390Z,59.84
2023-08-20T06:34:41.262Z,59.11
2023-08-20T06:37:08.107Z,59.16
2023-08-20T06:39:35.197Z,59.19
2023-08-20T06:42:02.101Z,58.73
2023-08-20T06:44:28.889Z,58.96
2023-08-20T06:46:55.696Z,59.39
2023-08-20T06:49:22.466Z,58.76
2023-08-20T06:51:49.319Z,58.75
2023-08-20T06:54:17.458Z,58.57
2023-08-20T06:56:44.358Z,58.85
2023-08-20T06:59:11.896Z,59.37
2023-08-20T07:01:38.770Z,58.66
2023-08-20T07:04:06.118Z,59.37
2023-08-20T07:06:33.070Z,59.71
2023-08-20T07:08:59.868Z,58.76
2023-08-20T07:11:26.680Z,59.33
2023-08-20T07:13:53.510Z,58.40
2023-08-20T07:16:20.478Z,59.24
2023-08-20T07:18:47.295Z,58.68
2023-08-20T07:21:14.090Z,58.07
2023-08-20T07:23:40.928Z,58.00
2023-08-20T07:26:13.451Z,58.27
2023-08-20T07:28:59.754Z,58.14
2023-08-20T07:31:30.905Z,59.00
2023-08-20T07:36:30.945Z,59.55
2023-08-20T07:38:57.789Z,59.80
2023-08-20T07:41:24.689Z,60.41
2023-08-20T07:43:51.533Z,60.15
2023-08-20T07:46:18.375Z,59.95
2023-08-20T07:48:45.324Z,59.24
2023-08-20T07:51:12.179Z,58.88
2023-08-20T07:53:39.005Z,60.06
2023-08-20T07:56:05.887Z,60.13
2023-08-20T07:58:32.674Z,59.33
2023-08-20T08:00:59.739Z,58.66
2023-08-20T08:03:29.334Z,57.94
2023-08-20T08:05:56.665Z,58.32
2023-08-20T08:08:23.932Z,57.94
2023-08-20T08:10:51.103Z,57.85
2023-08-20T08:13:21.764Z,57.51
2023-08-20T08:15:49.130Z,57.44
2023-08-20T08:18:16.185Z,57.26
2023-08-20T08:20:43.102Z,57.04
2023-08-20T08:23:10.023Z,57.28
2023-08-20T08:25:36.979Z,57.14
2023-08-20T08:28:04.861Z,56.77
2023-08-20T08:30:31.936Z,57.55
2023-08-20T08:32:59.635Z,57.28
2023-08-20T08:35:26.532Z,57.82
2023-08-20T08:37:54.012Z,57.33
2023-08-20T08:40:20.984Z,57.09
2023-08-20T08:42:51.152Z,56.44
2023-08-20T08:45:21.324Z,57.15
2023-08-20T08:47:49.806Z,57.18
2023-08-20T08:50:17.608Z,56.80
2023-08-20T08:52:47.358Z,57.10
2023-08-20T08:55:14.161Z,56.81
2023-08-20T08:57:40.962Z,56.95
2023-08-20T09:00:09.211Z,56.84
2023-08-20T09:02:36.373Z,56.88
2023-08-20T09:05:03.326Z,56.57
2023-08-20T09:07:31.781Z,56.75
2023-08-20T09:10:03.973Z,56.22
2023-08-20T09:12:35.925Z,56.45
2023-08-20T09:15:03.305Z,56.19
2023-08-20T09:17:30.428Z,55.88
2023-08-20T09:19:58.669Z,54.98
2023-08-20T09:22:25.829Z,55.36
2023-08-20T09:24:57.917Z,54.57
2023-08-20T09:27:25.339Z,54.88
2023-08-20T09:29:54.842Z,54.99
2023-08-20T09:32:29.075Z,54.06
2023-08-20T09:34:57.196Z,54.69
2023-08-20T09:37:26.042Z,54.49
2023-08-20T09:39:52.894Z,54.21
2023-08-20T09:42:20.238Z,54.27
2023-08-20T09:44:51.488Z,54.54
2023-08-20T09:47:22.646Z,54.60
2023-08-20T09:49:49.705Z,54.95
2023-08-20T09:52:37.677Z,54.39
2023-08-20T09:55:17.552Z,54.52
2023-08-20T09:57:46.806Z,53.67
2023-08-20T10:00:15.091Z,54.56
2023-08-20T10:02:43.614Z,54.41
2023-08-20T10:05:12.175Z,54.26
2023-08-20T10:07:39.633Z,54.05
2023-08-20T10:10:09.230Z,54.25
2023-08-20T10:12:40.742Z,53.27
2023-08-20T10:15:11.772Z,53.77
2023-08-20T10:17:40.302Z,54.07
2023-08-20T10:20:09.250Z,54.13
2023-08-20T10:22:44.962Z,54.04
2023-08-20T10:25:22.658Z,54.12
2023-08-20T10:27:49.471Z,53.79
2023-08-20T10:30:26.479Z,53.51
2023-08-20T10:33:04.978Z,53.45
2023-08-20T10:35:41.040Z,53.62
2023-08-20T10:38:19.648Z,53.27
2023-08-20T10:41:00.360Z,53.55
2023-08-20T10:43:27.183Z,53.84
2023-08-20T10:46:19.058Z,53.51
2023-08-20T10:48:57.640Z,53.51
2023-08-20T10:51:35.220Z,53.33
2023-08-20T10:54:02.140Z,53.06
2023-08-20T10:56:42.113Z,52.58
2023-08-20T10:59:15.865Z,53.25
2023-08-20T11:01:47.203Z,53.27
2023-08-20T11:04:19.254Z,52.73
2023-08-20T11:06:47.599Z,52.80
2023-08-20T11:09:14.951Z,53.28
2023-08-20T11:11:42.843Z,53.15
2023-08-20T11:14:17.100Z,52.99
2023-08-20T11:16:45.682Z,52.19
2023-08-20T11:19:12.525Z,52.25
2023-08-20T11:21:41.336Z,52.18
2023-08-20T11:24:10.126Z,51.96
2023-08-20T11:26:41.394Z,52.60
2023-08-20T11:29:13.710Z,52.27
2023-08-20T11:31:41.273Z,52.37
2023-08-20T11:34:11.453Z,52.23
2023-08-20T11:36:40.368Z,52.57
2023-08-20T11:39:08.925Z,53.12
2023-08-20T11:41:39.848Z,52.26
2023-08-20T11:44:09.461Z,52.45
2023-08-20T11:46:43.693Z,52.34
2023-08-20T11:49:11.742Z,51.99
2023-08-20T11:51:48.855Z,51.90
2023-08-20T11:54:17.849Z,51.10
2023-08-20T11:56:51.907Z,50.60
2023-08-20T11:59:20.674Z,51.88
2023-08-20T12:01:56.478Z,51.86
2023-08-20T12:04:26.731Z,51.50
2023-08-20T12:07:09.866Z,51.23
2023-08-20T12:09:37.205Z,51.10
2023-08-20T12:12:06.884Z,50.36
2023-08-20T12:14:34.243Z,51.08
2023-08-20T12:17:01.245Z,50.91
2023-08-20T12:19:28.006Z,50.41
2023-08-20T12:21:54.856Z,50.72
2023-08-20T12:24:22.095Z,49.96
2023-08-20T12:26:49.105Z,50.12
2023-08-20T12:29:16.108Z,50.19
2023-08-20T12:31:43.580Z,50.57
2023-08-20T12:34:10.929Z,50.13
2023-08-20T12:36:38.582Z,49.92
2023-08-20T12:39:06.153Z,50.14
2023-08-20T12:41:33.658Z,50.08
2023-08-20T12:44:00.578Z,49.42
2023-08-20T12:46:27.458Z,49.83
2023-08-20T12:48:54.227Z,49.76
2023-08-20T12:51:21.621Z,48.36
2023-08-20T12:53:49.546Z,49.35
2023-08-20T12:56:17.423Z,48.79
2023-08-20T12:58:45.269Z,49.62
2023-08-20T13:01:12.654Z,49.48
2023-08-20T13:03:40.028Z,48.04
2023-08-20T13:06:07.609Z,48.57
2023-08-20T13:08:34.786Z,47.99
2023-08-20T13:11:04.654Z,47.40
2023-08-20T13:13:33.500Z,47.63
2023-08-20T13:16:01.371Z,48.42
2023-08-20T13:18:28.577Z,48.29
2023-08-20T13:20:55.639Z,48.27
2023-08-20T13:23:22.482Z,48.02
2023-08-20T13:25:49.357Z,47.83
2023-08-20T13:28:16.161Z,48.34
2023-08-20T13:30:42.925Z,48.28
2023-08-20T13:33:09.826Z,47.92
2023-08-20T13:35:36.743Z,47.32
2023-08-20T13:38:06.107Z,47.81
2023-08-20T13:40:32.941Z,47.54
2023-08-20T13:42:59.790Z,47.41
2023-08-20T13:45:26.925Z,47.54
2023-08-20T13:47:53.828Z,47.54
2023-08-20T13:50:20.915Z,47.51
2023-08-20T13:52:47.714Z,48.15
2023-08-20T13:55:14.546Z,47.19
2023-08-20T13:57:41.359Z,47.32
2023-08-20T14:00:10.093Z,47.00
2023-08-20T14:02:37.153Z,46.96
2023-08-20T14:05:05.680Z,46.88
2023-08-20T14:07:34.051Z,46.95
2023-08-20T14:10:01.985Z,46.94
2023-08-20T14:12:29.317Z,46.65
2023-08-20T14:14:56.556Z,47.91
2023-08-20T14:17:23.437Z,46.16
2023-08-20T14:19:50.444Z,46.81
2023-08-20T14:22:17.203Z,46.79
2023-08-20T14:24:44.028Z,46.10
2023-08-20T14:27:11.217Z,45.74
2023-08-20T14:29:38.205Z,45.88
2023-08-20T14:32:05.285Z,45.97
2023-08-20T14:34:32.142Z,45.81
2023-08-20T14:36:58.996Z,45.79
2023-08-20T14:39:25.902Z,46.16
2023-08-20T14:41:52.767Z,45.59
2023-08-20T14:44:19.996Z,45.43
2023-08-20T14:46:46.896Z,45.37
2023-08-20T14:49:13.721Z,45.23
2023-08-20T14:51:40.552Z,45.58
2023-08-20T14:54:07.580Z,45.87
2023-08-20T14:56:34.338Z,44.87
2023-08-20T14:59:01.596Z,44.72
2023-08-20T15:01:28.695Z,45.36
2023-08-20T15:03:55.503Z,44.84
2023-08-20T15:06:25.228Z,44.80
2023-08-20T15:08:52.089Z,44.70
2023-08-20T15:11:18.836Z,45.06
2023-08-20T15:13:45.861Z,44.83
2023-08-20T15:16:12.675Z,44.71
2023-08-20T15:18:39.488Z,44.70
2023-08-20T15:21:06.289Z,44.54
2023-08-20T15:23:33.227Z,44.54
2023-08-20T15:25:59.994Z,45.17
2023-08-20T15:28:27.666Z,44.39
2023-08-20T15:30:55.578Z,44.66
2023-08-20T15:33:22.465Z,44.08
2023-08-20T15:35:49.711Z,44.36
2023-08-20T15:38:17.025Z,44.01
2023-08-20T15:40:43.851Z,44.46
2023-08-20T15:43:11.254Z,44.18
2023-08-20T15:45:38.340Z,43.79
2023-08-20T15:48:05.394Z,43.18
2023-08-20T15:50:32.195Z,44.32
2023-08-20T15:52:59.124Z,43.91
2023-08-20T15:55:25.983Z,44.62
2023-08-20T15:57:52.866Z,44.03
2023-08-20T16:00:20.891Z,44.40
2023-08-20T16:02:49.575Z,44.15
2023-08-20T16:05:16.652Z,43.74
2023-08-20T16:07:43.516Z,44.19
2023-08-20T16:10:12.125Z,44.29
2023-08-20T16:12:40.167Z,44.13
2023-08-20T16:15:08.269Z,43.75
2023-08-20T16:17:35.555Z,43.55
2023-08-20T16:20:03.169Z,43.90
2023-08-20T16:22:31.392Z,43.47
2023-08-20T16:24:58.372Z,43.76
2023-08-20T16:27:25.227Z,43.84
2023-08-20T16:29:52.124Z,44.17
2023-08-20T16:32:19.194Z,43.74
2023-08-20T16:34:48.147Z,43.73
2023-08-20T16:37:15.503Z,43.70
2023-08-20T16:39:42.303Z,43.61
2023-08-20T16:42:09.228Z,43.06
2023-08-20T16:44:36.187Z,43.42
2023-08-20T16:47:03.107Z,43.64
2023-08-20T16:49:30.256Z,43.51
2023-08-20T16:52:00.225Z,43.82
2023-08-20T16:54:27.013Z,43.76
2023-08-20T16:56:53.831Z,43.53
2023-08-20T16:59:20.652Z,43.27
2023-08-20T17:01:48.323Z,43.67
2023-08-20T17:04:15.545Z,43.41
2023-08-20T17:06:43.667Z,43.09
2023-08-20T17:09:10.552Z,43.44
2023-08-20T17:11:37.539Z,43.69
2023-08-20T17:14:04.871Z,43.58
2023-08-20T17:16:33.191Z,43.97
2023-08-20T17:19:00.709Z,43.54
2023-08-20T17:21:27.508Z,43.69
2023-08-20T17:23:54.323Z,44.16
2023-08-20T17:26:21.549Z,43.71
2023-08-20T17:28:48.310Z,43.80
2023-08-20T17:31:15.195Z,44.05
2023-08-20T17:33:45.579Z,44.13
2023-08-20T17:36:13.783Z,43.97
2023-08-20T17:38:40.584Z,43.99
2023-08-20T17:41:07.833Z,44.58
2023-08-20T17:43:34.784Z,44.15
2023-08-20T17:46:01.733Z,44.31
2023-08-20T17:48:29.513Z,44.11
2023-08-20T17:50:56.480Z,44.48
2023-08-20T17:53:27.608Z,44.24
2023-08-20T17:55:55.344Z,44.96
2023-08-20T17:58:22.851Z,44.75
2023-08-20T18:00:50.414Z,44.56
2023-08-20T18:03:17.805Z,44.92
2023-08-20T18:05:45.275Z,45.08
2023-08-20T18:08:12.572Z,44.61
2023-08-20T18:10:39.396Z,44.89
2023-08-20T18:13:08.555Z,45.30
2023-08-20T18:15:35.722Z,44.66
2023-08-20T18:18:02.794Z,45.10
2023-08-20T18:20:29.874Z,45.50
2023-08-20T18:22:57.044Z,45.31
2023-08-20T18:25:23.801Z,45.28
2023-08-20T18:27:50.872Z,45.25
2023-08-20T18:30:17.858Z,45.08
2023-08-20T18:32:44.848Z,44.91
2023-08-20T18:35:12.025Z,44.84
2023-08-20T18:37:39.061Z,45.09
2023-08-20T18:40:09.924Z,45.58
2023-08-20T18:42:38.724Z,45.39
2023-08-20T18:45:06.986Z,45.82
2023-08-20T18:47:34.087Z,45.84
2023-08-20T18:50:00.973Z,46.22
2023-08-20T18:52:27.861Z,45.64
2023-08-20T18:54:54.716Z,46.19
2023-08-20T18:57:21.574Z,45.78
2023-08-20T18:59:48.623Z,46.35
2023-08-20T19:02:15.501Z,45.98
2023-08-20T19:04:42.322Z,46.38
2023-08-20T19:07:10.150Z,46.08
2023-08-20T19:09:37.408Z,46.55
2023-08-20T19:12:04.721Z,46.45
2023-08-20T19:14:31.614Z,46.33
2023-08-20T19:16:58.442Z,46.46
2023-08-20T19:19:25.330Z,46.64
2023-08-20T19:21:53.476Z,46.16
2023-08-20T19:24:20.703Z,47.13
2023-08-20T19:26:47.833Z,46.69
2023-08-20T19:29:14.747Z,47.06
2023-08-20T19:31:41.702Z,46.74
2023-08-20T19:34:08.773Z,47.26
2023-08-20T19:36:35.787Z,46.95
2023-08-20T19:39:02.658Z,47.07
2023-08-20T19:41:29.540Z,47.15
2023-08-20T19:43:56.390Z,46.89
2023-08-20T19:46:26.421Z,46.67
2023-08-20T19:48:53.698Z,46.96
2023-08-20T19:51:20.472Z,46.85
2023-08-20T19:53:47.222Z,47.67
2023-08-20T19:56:14.350Z,47.34
2023-08-20T19:58:41.429Z,46.65
2023-08-20T20:01:10.031Z,47.11
2023-08-20T20:03:36.914Z,47.33
2023-08-20T20:06:04.453Z,47.09
2023-08-20T20:08:31.521Z,47.70
2023-08-20T20:10:58.377Z,47.59
2023-08-20T20:13:25.270Z,47.73
2023-08-20T20:15:52.376Z,47.31
2023-08-20T20:18:19.232Z,47.26
2023-08-20T20:20:49.413Z,47.84
2023-08-20T20:23:17.693Z,47.89
2023-08-20T20:25:44.468Z,47.92
2023-08-20T20:28:11.836Z,47.91
2023-08-20T20:30:41.502Z,48.11
2023-08-20T20:33:08.747Z,48.53
2023-08-20T20:35:35.557Z,48.06
2023-08-20T20:38:02.313Z,48.06
2023-08-20T20:40:29.133Z,48.72
2023-08-20T20:42:55.919Z,48.42
2023-08-20T20:45:23.680Z,48.50
2023-08-20T20:47:51.253Z,48.62
2023-08-20T20:50:18.674Z,48.62
2023-08-20T20:52:45.449Z,48.19
2023-08-20T20:55:12.293Z,48.37
2023-08-20T20:57:39.308Z,48.95
2023-08-20T21:00:06.969Z,48.66
2023-08-20T21:02:34.102Z,48.93
2023-08-20T21:05:01.114Z,48.40
2023-08-20T21:07:27.928Z,48.94
2023-08-20T21:09:55.008Z,48.88
2023-08-20T21:12:22.314Z,49.17
2023-08-20T21:14:49.131Z,48.86
2023-08-20T21:17:16.170Z,48.75
2023-08-20T21:19:42.916Z,48.91
2023-08-20T21:22:13.425Z,48.58
2023-08-20T21:24:40.804Z,48.84
2023-08-20T21:27:11.801Z,49.10
2023-08-20T21:29:39.806Z,49.12
2023-08-20T21:32:07.334Z,49.30
2023-08-20T21:34:34.447Z,49.38
2023-08-20T21:37:01.964Z,49.48
2023-08-20T21:39:29.003Z,49.09
2023-08-20T21:41:56.215Z,48.82
2023-08-20T21:44:23.250Z,49.30
2023-08-20T21:46:55.592Z,49.56
2023-08-20T21:49:25.422Z,49.64
2023-08-20T21:51:52.721Z,49.42
2023-08-20T21:54:20.720Z,49.74
2023-08-20T21:56:52.658Z,49.03
2023-08-20T21:59:19.748Z,49.37
2023-08-20T22:01:46.818Z,49.29
2023-08-20T22:04:13.783Z,49.78
2023-08-20T22:06:40.593Z,49.68
2023-08-20T22:09:07.400Z,49.96
2023-08-20T22:11:34.494Z,49.98
2023-08-20T22:14:01.425Z,49.46
2023-08-20T22:16:28.494Z,49.90
2023-08-20T22:18:55.270Z,50.84
2023-08-20T22:21:22.022Z,50.81
2023-08-20T22:23:48.779Z,50.43
2023-08-20T22:26:15.575Z,50.81
2023-08-20T22:28:42.378Z,50.96
2023-08-20T22:31:09.308Z,50.85
2023-08-20T22:33:36.085Z,51.25
2023-08-20T22:36:03.611Z,50.77
2023-08-20T22:38:30.486Z,50.93
2023-08-20T22:40:57.288Z,50.39
2023-08-20T22:43:24.081Z,50.87
2023-08-20T22:45:50.901Z,50.97
2023-08-20T22:48:17.777Z,50.86
2023-08-20T22:50:44.564Z,50.98
2023-08-20T22:53:11.327Z,51.19
2023-08-20T22:55:38.407Z,51.34
2023-08-20T22:58:05.864Z,51.08
2023-08-20T23:00:32.923Z,51.07
2023-08-20T23:03:00.096Z,51.37
2023-08-20T23:05:27.029Z,51.00
2023-08-20T23:07:53.773Z,50.87
2023-08-20T23:10:20.639Z,51.06
2023-08-20T23:12:47.381Z,51.22
2023-08-20T23:15:14.918Z,51.09
2023-08-20T23:17:41.774Z,51.50
2023-08-20T23:20:09.373Z,50.56
2023-08-20T23:22:36.749Z,50.76
2023-08-20T23:25:04.189Z,51.31
2023-08-20T23:27:31.325Z,51.51
2023-08-20T23:29:59.921Z,51.52
2023-08-20T23:32:27.809Z,51.37
2023-08-20T23:34:54.617Z,51.58
2023-08-20T23:37:21.400Z,51.65
2023-08-20T23:39:48.168Z,51.96
2023-08-20T23:42:15.611Z,51.27
2023-08-20T23:44:42.479Z,51.85
2023-08-20T23:47:09.354Z,51.93
2023-08-20T23:49:37.306Z,51.72
2023-08-20T23:52:05.156Z,51.60
2023-08-20T23:54:31.978Z,51.71
2023-08-20T23:56:58.822Z,51.93
2023-08-20T23:59:25.653Z,51.32
